Terminal Aerodrome Forecast
Issued by NWS

Home | Current Version | Previous Version | Text Only | Print | Product List | Glossary On
Versions: 1 2 3 4 5 6 7 8 9 10 11 12 13 14 15 16
000
FTUS41 KAKQ 041139
TAFPHF
TAF
KPHF 041139Z 0412/0512 23010KT P6SM SCT015
      TEMPO 0412/0414 BKN015
     FM041600 22013G18KT P6SM SCT050 BKN250
     FM050200 25004KT P6SM SCT050=

USA.gov is the U.S. government's official web portal to all federal, state and local government web resources and services.